Time;durP1;ratioP1;P1;durP2;ratioP2;P2;SDS_P1;SDS_P2;PMS_P1;PMS_P2;Temp;Humidity;BMP_temperature;BMP_pressure;BME280_temperature;BME280_humidity;BME280_pressure;Samples;Min_cycle;Max_cycle;Signal;HPM_P1;HPM_P2
2021/05/05 00:01:05;;;;;;;6.28;3.70;;;;;;;12.51;77.97;96810.13;4940283;29;20075;-73
2021/05/05 00:03:32;;;;;;;5.90;3.97;;;;;;;12.60;77.86;96818.88;4924693;29;20542;-73
2021/05/05 00:05:58;;;;;;;6.97;4.50;;;;;;;12.18;79.58;96790.88;4926496;29;20036;-74
2021/05/05 00:08:24;;;;;;;7.05;4.22;;;;;;;12.11;78.97;96768.59;4926624;29;20043;-73
2021/05/05 00:10:50;;;;;;;6.65;4.10;;;;;;;12.46;78.46;96807.69;4940780;29;20472;-73
2021/05/05 00:13:17;;;;;;;7.40;4.40;;;;;;;11.83;78.51;96710.91;4926389;29;20079;-73
2021/05/05 00:15:43;;;;;;;5.18;4.22;;;;;;;12.81;78.67;96846.81;4925737;29;20031;-74
2021/05/05 00:18:08;;;;;;;9.80;4.38;;;;;;;12.83;78.50;96850.00;4925858;29;20043;-73
2021/05/05 00:20:35;;;;;;;4.82;3.88;;;;;;;12.30;78.52;96776.66;4925825;29;20424;-73
2021/05/05 00:23:00;;;;;;;4.90;3.33;;;;;;;10.92;78.15;96529.22;4926156;29;20040;-74
2021/05/05 00:25:26;;;;;;;7.10;4.55;;;;;;;11.88;79.11;96682.00;4924565;29;20608;-73
2021/05/05 00:27:52;;;;;;;7.18;3.92;;;;;;;12.63;79.91;96798.66;4926247;29;20475;-73
2021/05/05 00:30:19;;;;;;;10.05;3.63;;;;;;;12.63;79.39;96795.88;4925790;29;20036;-73
2021/05/05 00:32:45;;;;;;;5.63;3.95;;;;;;;12.23;78.97;96732.19;4925750;29;20076;-73
2021/05/05 00:35:10;;;;;;;7.47;3.55;;;;;;;12.48;79.90;96766.44;4925559;29;20122;-74
2021/05/05 00:37:36;;;;;;;8.15;3.35;;;;;;;12.33;79.60;96748.09;4926003;29;20043;-73
2021/05/05 00:40:03;;;;;;;4.43;3.22;;;;;;;12.23;80.47;96732.97;4929172;29;20036;-72
2021/05/05 00:42:29;;;;;;;6.38;3.63;;;;;;;12.24;79.87;96717.09;4929077;29;20500;-72
2021/05/05 00:44:59;;;;;;;6.70;4.03;;;;;;;12.16;78.95;96682.16;4929922;29;20031;-73
2021/05/05 00:47:25;;;;;;;6.35;3.80;;;;;;;12.86;79.34;96803.94;4943358;29;20146;-71
2021/05/05 00:49:52;;;;;;;8.27;3.50;;;;;;;12.79;79.49;96804.69;4929410;29;20119;-72
2021/05/05 00:52:17;;;;;;;5.70;4.05;;;;;;;12.85;79.27;96789.22;4942926;29;20047;-72
2021/05/05 00:54:43;;;;;;;5.72;4.22;;;;;;;12.59;79.51;96753.41;4927311;29;20545;-72
2021/05/05 00:57:08;;;;;;;6.15;3.70;;;;;;;12.79;79.91;96779.69;4927141;29;20067;-72
2021/05/05 00:59:34;;;;;;;5.93;4.15;;;;;;;12.84;79.70;96778.50;4943290;29;20089;-71
2021/05/05 01:01:59;;;;;;;6.57;4.07;;;;;;;12.49;79.35;96706.91;4928994;29;20035;-71
2021/05/05 01:04:25;;;;;;;4.43;3.40;;;;;;;12.50;79.59;96714.06;4929522;29;20035;-71
2021/05/05 01:06:52;;;;;;;4.38;3.95;;;;;;;13.02;79.07;96768.28;4928716;29;20042;-72
2021/05/05 01:09:18;;;;;;;6.45;4.22;;;;;;;12.95;79.35;96773.78;4927810;29;21121;-72
2021/05/05 01:11:44;;;;;;;11.73;3.88;;;;;;;12.81;79.37;96755.06;4927120;29;20032;-71
2021/05/05 01:14:10;;;;;;;8.35;4.53;;;;;;;12.37;79.16;96687.81;4927461;29;20123;-72
2021/05/05 01:16:36;;;;;;;8.02;4.50;;;;;;;12.98;78.74;96751.53;4927128;29;20036;-72
2021/05/05 01:19:02;;;;;;;9.23;4.40;;;;;;;12.33;82.10;96759.19;4927370;29;20035;-71
2021/05/05 01:21:27;;;;;;;6.10;4.35;;;;;;;11.69;83.79;96691.41;4928682;29;20063;-72
2021/05/05 01:23:53;;;;;;;6.38;4.15;;;;;;;12.37;83.04;96768.38;4927330;29;20175;-69
2021/05/05 01:26:18;;;;;;;6.00;4.43;;;;;;;12.44;82.79;96782.28;4927127;29;20829;-71
2021/05/05 01:28:44;;;;;;;7.57;4.03;;;;;;;12.57;81.96;96775.22;4928650;29;20062;-72
2021/05/05 01:31:13;;;;;;;5.28;3.88;;;;;;;12.68;80.67;96780.81;4942741;29;20082;-71
2021/05/05 01:33:40;;;;;;;8.70;3.90;;;;;;;12.81;80.01;96773.72;4928712;29;20403;-71
2021/05/05 01:36:07;;;;;;;9.07;4.07;;;;;;;12.82;80.02;96776.09;4928241;29;20035;-71
2021/05/05 01:38:33;;;;;;;5.38;3.78;;;;;;;12.81;80.56;96785.66;4928390;29;20126;-71
2021/05/05 01:40:59;;;;;;;5.90;4.10;;;;;;;12.40;80.10;96742.59;4928583;29;20110;-71
2021/05/05 01:43:25;;;;;;;7.03;4.80;;;;;;;12.29;80.46;96727.84;4926791;29;20446;-72
2021/05/05 01:45:50;;;;;;;7.43;5.20;;;;;;;11.94;80.50;96670.16;4926390;29;20048;-71
2021/05/05 01:48:18;;;;;;;9.15;4.78;;;;;;;12.64;81.80;96769.69;4928293;29;20043;-71
2021/05/05 01:50:45;;;;;;;6.88;4.80;;;;;;;12.39;82.83;96757.66;4925522;29;20142;-72
2021/05/05 01:53:12;;;;;;;9.60;5.28;;;;;;;12.48;83.55;96776.75;4926552;29;20039;-72
2021/05/05 01:55:38;;;;;;;8.80;4.78;;;;;;;12.61;82.62;96787.16;4927923;29;20063;-72
2021/05/05 01:58:03;;;;;;;6.88;4.95;;;;;;;11.87;81.81;96652.69;4928057;29;20036;-71
2021/05/05 02:00:30;;;;;;;9.30;5.82;;;;;;;11.79;85.36;96734.28;4927879;29;20028;-71
2021/05/05 02:02:55;;;;;;;7.13;5.43;;;;;;;11.79;85.64;96689.88;4927928;29;20488;-71
2021/05/05 02:05:21;;;;;;;7.65;4.50;;;;;;;12.40;83.70;96775.91;4926007;29;20039;-71
2021/05/05 02:07:47;;;;;;;7.72;3.78;;;;;;;12.49;83.47;96770.81;4926819;29;20039;-71
2021/05/05 02:10:15;;;;;;;5.53;3.90;;;;;;;12.21;82.81;96712.34;4927635;29;20040;-71
2021/05/05 02:12:41;;;;;;;11.57;5.50;;;;;;;9.97;83.04;96354.81;4928203;29;20040;-71
2021/05/05 02:15:09;;;;;;;9.02;5.43;;;;;;;12.33;84.64;96742.53;4927428;29;20134;-71
2021/05/05 02:17:36;;;;;;;12.98;5.28;;;;;;;11.61;89.05;96738.88;4927302;29;20040;-70
2021/05/05 02:20:05;;;;;;;7.60;5.80;;;;;;;11.47;91.33;96760.94;4927276;29;20031;-72
2021/05/05 02:22:30;;;;;;;7.15;5.53;;;;;;;11.64;90.03;96749.22;4941094;29;20043;-70
2021/05/05 02:24:56;;;;;;;13.93;6.32;;;;;;;11.19;89.75;96666.41;4927812;29;20040;-70
2021/05/05 02:27:21;;;;;;;9.23;6.03;;;;;;;11.76;89.62;96757.25;4927145;29;20032;-72
2021/05/05 02:29:47;;;;;;;9.82;6.38;;;;;;;11.81;89.06;96721.59;4927622;29;20557;-71
2021/05/05 02:32:15;;;;;;;6.95;5.60;;;;;;;10.89;88.28;96571.53;4927441;29;20498;-71
2021/05/05 02:34:40;;;;;;;9.73;5.47;;;;;;;11.82;87.95;96706.53;4925879;29;20154;-71
2021/05/05 02:37:09;;;;;;;7.75;5.57;;;;;;;11.79;86.96;96673.25;4926968;29;20547;-71
2021/05/05 02:39:39;;;;;;;7.03;4.65;;;;;;;12.11;87.10;96716.66;4927512;29;20515;-71
2021/05/05 02:42:06;;;;;;;6.25;4.32;;;;;;;12.00;86.19;96701.09;4941419;29;20539;-71
2021/05/05 02:44:31;;;;;;;9.45;4.72;;;;;;;11.78;85.69;96711.28;4927226;29;20185;-71
2021/05/05 02:46:57;;;;;;;9.25;4.88;;;;;;;12.23;85.45;96712.75;4926803;29;20083;-71
2021/05/05 02:49:22;;;;;;;8.57;4.82;;;;;;;11.68;86.48;96655.72;4927640;29;20033;-72
2021/05/05 02:51:48;;;;;;;8.68;4.40;;;;;;;12.14;85.89;96715.06;4925540;29;20130;-72
2021/05/05 02:54:13;;;;;;;5.80;4.47;;;;;;;11.50;86.28;96665.88;4925389;29;20034;-70
2021/05/05 02:56:39;;;;;;;6.45;4.50;;;;;;;11.94;86.35;96724.84;4925419;29;20114;-71
2021/05/05 02:59:04;;;;;;;11.40;4.95;;;;;;;10.83;86.67;96565.53;4927115;29;20031;-71
2021/05/05 03:01:30;;;;;;;7.40;4.40;;;;;;;11.78;87.41;96732.69;4926309;29;20038;-70
2021/05/05 03:03:55;;;;;;;5.53;4.40;;;;;;;11.01;87.33;96610.03;4927302;29;20454;-71
2021/05/05 03:06:20;;;;;;;7.45;5.10;;;;;;;11.77;87.58;96742.19;4926835;29;20039;-71
2021/05/05 03:08:47;;;;;;;9.38;5.00;;;;;;;11.85;86.96;96741.06;4927227;29;20031;-71
2021/05/05 03:11:13;;;;;;;8.05;4.60;;;;;;;11.77;87.12;96733.88;4940987;29;20039;-71
2021/05/05 03:13:38;;;;;;;5.82;4.57;;;;;;;11.28;86.63;96639.97;4926852;29;20047;-71
2021/05/05 03:16:05;;;;;;;9.32;4.68;;;;;;;11.80;87.50;96725.56;4926136;29;20035;-71
2021/05/05 03:18:30;;;;;;;23.55;6.50;;;;;;;11.79;87.09;96729.50;4924798;29;20075;-70
2021/05/05 03:20:58;;;;;;;8.85;4.65;;;;;;;11.79;87.43;96734.28;4926434;29;20154;-71
2021/05/05 03:23:23;;;;;;;11.27;4.50;;;;;;;11.88;86.57;96740.28;4926656;29;20114;-72
2021/05/05 03:25:49;;;;;;;7.70;3.67;;;;;;;12.01;86.09;96736.03;4924996;29;20585;-73
2021/05/05 03:28:14;;;;;;;6.05;4.60;;;;;;;11.52;86.76;96669.06;4926325;29;20066;-73
2021/05/05 03:30:40;;;;;;;8.50;4.28;;;;;;;12.01;86.79;96736.03;4925370;29;20035;-72
2021/05/05 03:33:05;;;;;;;9.77;4.13;;;;;;;12.15;85.16;96747.22;4925658;29;20293;-72
2021/05/05 03:35:31;;;;;;;4.95;3.90;;;;;;;12.20;85.02;96738.53;4925195;29;20114;-73
2021/05/05 03:37:56;;;;;;;11.98;4.57;;;;;;;11.69;85.02;96682.28;4925307;29;20062;-72
2021/05/05 03:40:22;;;;;;;8.85;3.80;;;;;;;12.23;84.11;96744.06;4925388;29;20552;-71
2021/05/05 03:42:47;;;;;;;5.85;4.30;;;;;;;11.73;84.20;96653.38;4940168;29;20110;-71
2021/05/05 03:45:13;;;;;;;5.75;4.15;;;;;;;12.42;83.85;96740.22;4925365;29;20038;-71
2021/05/05 03:47:39;;;;;;;5.95;4.22;;;;;;;12.52;82.90;96747.78;4925329;29;20535;-71
2021/05/05 03:50:06;;;;;;;7.07;4.43;;;;;;;12.37;83.55;96725.91;4925234;29;20111;-72
2021/05/05 03:52:32;;;;;;;7.53;4.20;;;;;;;12.42;83.37;96734.66;4924993;29;20036;-72
2021/05/05 03:54:58;;;;;;;10.07;4.32;;;;;;;12.58;82.80;96742.66;4925015;29;20052;-72
2021/05/05 03:57:24;;;;;;;8.25;4.60;;;;;;;11.01;81.83;96449.28;4925890;29;20467;-72
2021/05/05 03:59:49;;;;;;;6.28;4.57;;;;;;;12.34;82.23;96677.50;4926580;29;20035;-72
2021/05/05 04:02:15;;;;;;;5.30;3.83;;;;;;;12.05;82.06;96620.22;4924241;29;20040;-72
2021/05/05 04:04:40;;;;;;;5.68;3.55;;;;;;;11.84;81.69;96590.41;4926417;29;20039;-70
2021/05/05 04:07:05;;;;;;;6.53;3.75;;;;;;;12.90;81.49;96736.03;4925855;29;20060;-72
2021/05/05 04:09:31;;;;;;;5.72;4.03;;;;;;;13.01;80.63;96745.22;4926056;29;20036;-72
2021/05/05 04:11:57;;;;;;;6.72;4.28;;;;;;;12.90;81.20;96755.50;4925766;29;20044;-72
2021/05/05 04:14:22;;;;;;;11.95;5.03;;;;;;;12.87;81.24;96744.34;4942965;28;20106;-74
2021/05/05 04:16:48;;;;;;;6.30;3.55;;;;;;;12.31;80.23;96644.94;4929209;29;20040;-73
2021/05/05 04:19:13;;;;;;;7.55;4.00;;;;;;;13.03;80.65;96759.53;4928660;29;20023;-73
2021/05/05 04:21:39;;;;;;;8.23;4.40;;;;;;;12.75;80.67;96728.84;4929538;29;20046;-73
2021/05/05 04:24:05;;;;;;;7.75;4.75;;;;;;;13.07;79.86;96754.78;4929739;29;20115;-73
2021/05/05 04:26:31;;;;;;;8.70;4.80;;;;;;;12.90;80.64;96752.72;4929426;29;20053;-73
2021/05/05 04:28:56;;;;;;;10.18;4.63;;;;;;;12.68;80.55;96709.34;4929611;29;20479;-73
2021/05/05 04:31:22;;;;;;;8.95;3.95;;;;;;;12.41;80.04;96646.94;4929067;29;20042;-73
2021/05/05 04:33:48;;;;;;;8.05;4.57;;;;;;;12.36;79.64;96630.66;4928193;29;20035;-71
2021/05/05 04:36:14;;;;;;;12.10;5.82;;;;;;;13.22;80.07;96773.09;4927615;29;20049;-74
2021/05/05 04:38:41;;;;;;;9.40;6.40;;;;;;;12.64;79.62;96677.19;4928333;29;20043;-72
2021/05/05 04:41:07;;;;;;;11.35;4.60;;;;;;;13.25;79.10;96744.50;4929449;29;20043;-72
2021/05/05 04:43:32;;;;;;;9.73;5.65;;;;;;;13.34;79.35;96736.53;4929305;29;20036;-71
2021/05/05 04:45:58;;;;;;;10.90;5.35;;;;;;;13.50;80.09;96770.34;4927750;29;20614;-73
2021/05/05 04:48:24;;;;;;;10.80;5.68;;;;;;;13.57;79.16;96770.38;4928856;29;20041;-72
2021/05/05 04:50:49;;;;;;;8.68;5.40;;;;;;;13.60;79.01;96766.81;4936447;29;20054;-72
2021/05/05 04:53:15;;;;;;;12.85;6.00;;;;;;;13.45;78.93;96753.28;4927258;29;20107;-73
2021/05/05 04:55:40;;;;;;;12.10;5.32;;;;;;;13.63;78.94;96771.56;4927033;29;20110;-73
2021/05/05 04:58:06;;;;;;;12.10;5.35;;;;;;;13.66;78.45;96770.78;4929254;29;20059;-73
2021/05/05 05:00:31;;;;;;;6.50;4.50;;;;;;;12.92;76.96;96586.31;4928533;29;20038;-73
2021/05/05 05:02:57;;;;;;;10.95;4.93;;;;;;;13.18;75.54;96599.84;4927409;29;20510;-74
2021/05/05 05:05:22;;;;;;;11.63;5.50;;;;;;;13.56;74.96;96659.47;4928950;29;20411;-74
2021/05/05 05:07:49;;;;;;;11.50;6.53;;;;;;;14.49;74.54;96775.91;4928911;29;20127;-74
2021/05/05 05:10:14;;;;;;;11.07;5.65;;;;;;;14.39;74.88;96765.56;4928615;29;20042;-74
2021/05/05 05:12:40;;;;;;;12.10;6.15;;;;;;;14.47;74.40;96769.91;4943189;29;20044;-72
2021/05/05 05:15:06;;;;;;;9.43;5.93;;;;;;;14.39;74.84;96762.78;4929060;29;20118;-71
2021/05/05 05:17:32;;;;;;;9.18;5.68;;;;;;;14.25;75.92;96771.16;4928601;29;20043;-71
2021/05/05 05:19:57;;;;;;;15.30;6.70;;;;;;;13.85;79.06;96777.16;4927218;29;20043;-71
2021/05/05 05:22:23;;;;;;;9.45;6.38;;;;;;;13.83;79.19;96785.09;4928025;29;20043;-72
2021/05/05 05:24:48;;;;;;;8.45;5.82;;;;;;;13.43;77.44;96688.88;4927085;29;20050;-73
2021/05/05 05:27:14;;;;;;;8.10;6.13;;;;;;;13.94;78.33;96785.91;4928064;29;20039;-72
2021/05/05 05:29:39;;;;;;;11.35;5.88;;;;;;;13.80;78.09;96760.84;4928631;29;20032;-72
2021/05/05 05:32:05;;;;;;;8.30;6.03;;;;;;;14.06;78.24;96786.28;4926134;29;20035;-73
2021/05/05 05:34:30;;;;;;;8.90;5.82;;;;;;;14.03;78.47;96783.50;4928693;29;20043;-72
2021/05/05 05:36:56;;;;;;;10.10;6.43;;;;;;;12.75;78.05;96591.88;4923483;29;20123;-63
2021/05/05 05:39:21;;;;;;;10.25;6.10;;;;;;;13.96;78.23;96798.22;4940864;28;20036;-65
2021/05/05 05:41:46;;;;;;;8.38;5.82;;;;;;;13.59;78.49;96765.19;4933379;29;20130;-71
2021/05/05 05:44:12;;;;;;;10.25;5.40;;;;;;;13.97;78.65;96868.66;4927695;29;20027;-66
2021/05/05 05:46:38;;;;;;;9.57;5.25;;;;;;;13.14;77.64;96671.38;4933498;29;20380;-71
2021/05/05 05:49:07;;;;;;;8.63;5.55;;;;;;;14.22;77.36;96785.88;4926529;29;20412;-71
2021/05/05 05:51:35;;;;;;;14.00;7.57;;;;;;;14.18;77.10;96790.66;4922181;29;20046;-67
2021/05/05 05:54:01;;;;;;;11.02;6.43;;;;;;;14.29;77.52;96802.63;4935609;29;20031;-70
2021/05/05 05:56:26;;;;;;;7.90;5.57;;;;;;;13.86;75.28;96690.44;4942395;29;20059;-69
2021/05/05 05:58:52;;;;;;;9.68;6.93;;;;;;;13.98;74.92;96689.22;4946435;28;20035;-70
2021/05/05 06:01:17;;;;;;;9.20;5.43;;;;;;;14.84;74.89;96812.03;4945944;28;20087;-66
2021/05/05 06:03:43;;;;;;;12.82;6.03;;;;;;;14.75;75.19;96806.06;4940208;28;20027;-73
2021/05/05 06:06:08;;;;;;;13.68;6.05;;;;;;;14.64;76.54;96802.53;4937828;29;20038;-71
2021/05/05 06:08:36;;;;;;;11.38;6.05;;;;;;;14.48;76.77;96760.38;4935638;29;20043;-74
2021/05/05 06:11:01;;;;;;;12.23;5.25;;;;;;;13.20;75.46;96566.06;4934300;29;20063;-70
2021/05/05 06:13:27;;;;;;;13.25;6.13;;;;;;;15.07;75.10;96792.81;4943302;28;20078;-67
2021/05/05 06:15:53;;;;;;;9.15;4.75;;;;;;;15.33;72.73;96797.88;4934142;29;20240;-72
2021/05/05 06:18:18;;;;;;;9.63;5.22;;;;;;;15.54;71.57;96792.19;4942007;29;20043;-73
2021/05/05 06:20:43;;;;;;;9.57;4.47;;;;;;;15.74;69.24;96796.06;4945401;28;20300;-64
2021/05/05 06:23:09;;;;;;;10.93;5.40;;;;;;;15.56;69.01;96747.91;4934456;28;20071;-71
2021/05/05 06:25:34;;;;;;;5.32;4.30;;;;;;;15.10;67.50;96613.44;4931133;29;20059;-72
2021/05/05 06:28:00;;;;;;;12.20;5.70;;;;;;;16.44;66.46;96792.66;4927912;28;20036;-74
2021/05/05 06:30:26;;;;;;;11.43;4.85;;;;;;;15.80;65.23;96663.13;4926893;29;20032;-76
2021/05/05 06:32:51;;;;;;;7.35;4.57;;;;;;;13.86;63.95;96405.66;4926225;29;20427;-74
2021/05/05 06:35:17;;;;;;;8.48;4.40;;;;;;;16.93;63.52;96784.97;4926570;29;20035;-72
2021/05/05 06:37:42;;;;;;;12.68;4.25;;;;;;;17.01;62.80;96734.06;4916728;29;20111;-72
2021/05/05 06:40:09;;;;;;;10.60;4.47;;;;;;;16.85;60.57;96666.72;4930944;29;20448;-72
2021/05/05 06:42:35;;;;;;;8.45;4.35;;;;;;;17.58;59.30;96725.69;4933163;29;20118;-74
2021/05/05 06:45:01;;;;;;;8.63;5.57;;;;;;;17.48;57.58;96653.84;4934510;29;20032;-71
2021/05/05 06:47:26;;;;;;;11.68;4.70;;;;;;;18.08;56.40;96662.00;4918009;29;20135;-71
2021/05/05 06:49:52;;;;;;;13.27;4.68;;;;;;;19.21;54.68;96753.94;4944760;29;20519;-73
2021/05/05 06:52:17;;;;;;;15.48;8.48;;;;;;;19.64;53.50;96761.44;4944042;29;20882;-71
2021/05/05 06:54:43;;;;;;;14.48;5.20;;;;;;;19.71;52.83;96747.22;4942088;29;20083;-75
2021/05/05 06:57:08;;;;;;;13.48;5.85;;;;;;;19.76;52.64;96743.91;4927091;29;20083;-71
2021/05/05 06:59:34;;;;;;;18.23;5.85;;;;;;;18.63;53.70;96659.34;4933499;29;20036;-72
2021/05/05 07:01:59;;;;;;;9.57;5.30;;;;;;;17.44;53.69;96541.03;4931095;29;20482;-71
2021/05/05 07:04:25;;;;;;;9.93;4.75;;;;;;;18.95;54.43;96738.03;4944305;29;20035;-70
2021/05/05 07:06:51;;;;;;;7.32;4.53;;;;;;;19.14;53.40;96726.00;4928110;28;20095;-72
2021/05/05 07:09:16;;;;;;;9.40;5.75;;;;;;;19.29;53.91;96716.06;4930871;29;20209;-68
2021/05/05 07:11:41;;;;;;;12.95;5.82;;;;;;;19.12;54.44;96683.53;4937959;29;20035;-70
2021/05/05 07:14:07;;;;;;;11.77;5.55;;;;;;;18.78;54.74;96669.03;4935865;29;20036;-70
2021/05/05 07:16:34;;;;;;;7.93;4.50;;;;;;;18.46;54.48;96624.03;4936943;29;20039;-70
2021/05/05 07:19:01;;;;;;;10.25;5.22;;;;;;;17.82;54.38;96523.56;4930144;28;20130;-70
2021/05/05 07:21:27;;;;;;;9.27;4.13;;;;;;;18.81;54.38;96695.44;4931505;29;20126;-68
2021/05/05 07:23:52;;;;;;;7.25;3.67;;;;;;;17.82;51.37;96495.53;4937096;28;20114;-74
2021/05/05 07:26:18;;;;;;;6.72;4.53;;;;;;;18.91;51.66;96694.41;4928363;28;20417;-71
2021/05/05 07:28:43;;;;;;;7.45;4.25;;;;;;;18.48;54.62;96688.88;4933199;29;20161;-72
2021/05/05 07:31:09;;;;;;;7.78;4.30;;;;;;;17.80;56.01;96698.91;4925453;29;20032;-73
2021/05/05 07:33:36;;;;;;;4.78;3.80;;;;;;;17.83;55.16;96692.47;4927937;29;20510;-67
2021/05/05 07:36:11;;;;;;;7.25;3.92;;;;;;;16.33;54.15;96424.97;4928098;29;20035;-71
2021/05/05 07:39:02;;;;;;;6.90;4.85;;;;;;;18.95;53.31;96679.06;4931076;29;20102;-74
2021/05/05 07:47:25;;;;;;;5.80;4.10;;;;;;;18.72;50.91;96609.03;4933837;28;20043;-69
2021/05/05 07:49:52;;;;;;;6.25;4.32;;;;;;;18.62;50.72;96587.59;4915422;28;20040;-63
2021/05/05 07:52:19;;;;;;;6.65;4.38;;;;;;;19.89;49.49;96680.09;4908079;29;20036;-71
2021/05/05 07:54:46;;;;;;;4.60;3.95;;;;;;;18.48;52.23;96621.56;4897213;29;20072;-69
2021/05/05 07:57:11;;;;;;;6.70;4.57;;;;;;;18.32;52.24;96680.34;4891790;29;20039;-73
2021/05/05 07:59:38;;;;;;;8.63;5.03;;;;;;;18.08;52.72;96614.34;4910422;29;20036;-70
2021/05/05 08:02:05;;;;;;;10.95;4.53;;;;;;;19.09;51.48;96684.41;4908642;29;20071;-75
2021/05/05 08:04:31;;;;;;;4.35;3.33;;;;;;;18.17;51.10;96571.69;4933995;29;20469;-67
2021/05/05 08:06:56;;;;;;;6.30;4.10;;;;;;;18.29;50.84;96574.66;4942671;29;20121;-72
2021/05/05 08:09:22;;;;;;;11.02;4.45;;;;;;;18.95;52.01;96689.53;4936672;29;20506;-71
2021/05/05 08:11:48;;;;;;;8.18;3.85;;;;;;;18.80;51.44;96646.94;4938194;28;20061;-70
2021/05/05 08:14:14;;;;;;;6.20;3.85;;;;;;;18.83;50.73;96615.19;4934847;28;20088;-72
2021/05/05 08:16:39;;;;;;;5.97;4.63;;;;;;;19.00;50.81;96701.03;4939822;28;20069;-69
2021/05/05 08:19:05;;;;;;;8.07;4.05;;;;;;;19.19;51.70;96683.34;4938682;28;20062;-69
2021/05/05 08:21:30;;;;;;;19.73;7.45;;;;;;;19.08;50.99;96642.69;4934975;28;20079;-68
2021/05/05 08:23:58;;;;;;;20.38;7.88;;;;;;;19.41;50.89;96678.88;4942637;28;20035;-70
2021/05/05 08:26:24;;;;;;;20.83;9.57;;;;;;;19.66;49.92;96671.88;4930235;28;20043;-70
2021/05/05 08:28:49;;;;;;;9.77;4.95;;;;;;;17.47;51.43;96461.81;4935618;29;20083;-71
2021/05/05 08:31:15;;;;;;;12.10;4.95;;;;;;;19.05;50.60;96638.75;4934029;29;20042;-73
2021/05/05 08:33:41;;;;;;;7.85;4.32;;;;;;;19.15;50.52;96654.56;4934630;29;20404;-72
2021/05/05 08:36:07;;;;;;;7.25;4.20;;;;;;;20.27;48.65;96672.72;4936667;28;20039;-71
2021/05/05 08:38:33;;;;;;;7.22;4.32;;;;;;;21.03;46.86;96663.31;4938859;28;20082;-68
2021/05/05 08:40:59;;;;;;;4.47;3.90;;;;;;;21.65;46.38;96659.75;4939495;28;20225;-69
2021/05/05 08:43:25;;;;;;;8.40;4.05;;;;;;;22.31;44.66;96662.38;4932937;29;20175;-71
2021/05/05 08:45:57;;;;;;;7.45;3.97;;;;;;;22.76;42.98;96656.34;4912050;29;20177;-70
2021/05/05 08:48:22;;;;;;;10.43;4.90;;;;;;;22.66;43.47;96656.72;4916172;29;20490;-67
2021/05/05 08:50:48;;;;;;;7.03;4.72;;;;;;;22.19;42.99;96558.78;4946915;28;20039;-67
2021/05/05 08:53:14;;;;;;;10.80;4.20;;;;;;;22.99;42.96;96632.47;4948024;29;20114;-67
2021/05/05 08:55:40;;;;;;;5.38;3.33;;;;;;;23.26;42.14;96658.88;4942734;29;20043;-72
2021/05/05 08:58:05;;;;;;;9.20;4.38;;;;;;;22.11;41.41;96419.19;4934200;29;20048;-66
2021/05/05 09:00:34;;;;;;;5.82;4.47;;;;;;;23.11;41.21;96558.13;4907666;29;20044;-71
2021/05/05 09:03:02;;;;;;;5.53;4.75;;;;;;;23.37;41.35;96525.56;4909415;29;20032;-70
2021/05/05 09:05:27;;;;;;;10.05;4.03;;;;;;;24.32;39.80;96638.34;4910340;29;20040;-67
2021/05/05 09:07:53;;;;;;;5.60;4.22;;;;;;;24.45;39.70;96629.69;4933976;28;20513;-67
2021/05/05 09:10:23;;;;;;;6.95;3.78;;;;;;;22.44;43.84;96632.06;4934795;29;20442;-70
2021/05/05 09:12:53;;;;;;;6.00;3.60;;;;;;;21.70;44.43;96625.38;4928433;29;20036;-69
2021/05/05 09:15:24;;;;;;;8.70;4.40;;;;;;;22.05;44.45;96627.00;4928767;29;20047;-70
2021/05/05 09:17:53;;;;;;;14.82;9.50;;;;;;;21.30;44.33;96463.66;4928583;29;20529;-70
2021/05/05 09:20:18;;;;;;;6.55;3.85;;;;;;;21.49;45.55;96611.97;4926519;29;20047;-70
2021/05/05 09:22:51;;;;;;;9.88;3.15;;;;;;;21.26;46.24;96615.09;4926830;29;20055;-69
2021/05/05 09:25:29;;;;;;;6.10;3.30;;;;;;;22.09;45.41;96619.22;4928116;29;20506;-70
2021/05/05 09:28:18;;;;;;;5.40;4.07;;;;;;;23.03;42.91;96610.53;4928112;29;20475;-69
2021/05/05 09:30:47;;;;;;;15.77;4.22;;;;;;;23.27;41.91;96577.66;4928039;29;20036;-68
2021/05/05 09:33:33;;;;;;;6.72;3.92;;;;;;;23.42;41.59;96599.28;4926695;29;20155;-71
2021/05/05 09:36:01;;;;;;;6.22;3.95;;;;;;;23.00;42.10;96594.50;4927946;29;20059;-69
2021/05/05 09:38:49;;;;;;;5.78;3.60;;;;;;;23.19;42.19;96590.50;4926752;29;20520;-69
2021/05/05 09:41:19;;;;;;;6.47;3.75;;;;;;;23.35;41.51;96548.66;4927860;29;20134;-68
2021/05/05 09:43:45;;;;;;;9.48;3.55;;;;;;;21.23;42.47;96215.97;4928073;29;20411;-70
2021/05/05 09:46:31;;;;;;;10.35;3.47;;;;;;;23.14;42.23;96577.75;4925873;29;20067;-69
2021/05/05 09:49:37;;;;;;;6.40;3.83;;;;;;;23.06;43.71;96570.03;4926433;29;20516;-70
2021/05/05 09:52:12;;;;;;;7.80;3.60;;;;;;;22.60;44.57;96562.56;4908255;29;20044;-69
2021/05/05 09:55:00;;;;;;;5.88;3.33;;;;;;;21.85;46.21;96570.09;4924173;29;20547;-70
2021/05/05 09:57:30;;;;;;;7.10;4.50;;;;;;;21.17;46.00;96499.50;4925783;29;20055;-69
2021/05/05 10:00:17;;;;;;;4.88;3.42;;;;;;;21.95;45.65;96560.47;4941709;29;20036;-68
2021/05/05 10:02:47;;;;;;;5.82;4.03;;;;;;;21.87;45.78;96519.66;4927872;29;20042;-69
2021/05/05 10:05:15;;;;;;;5.32;3.42;;;;;;;22.22;44.81;96569.13;4927618;29;20031;-70
2021/05/05 10:07:58;;;;;;;5.10;3.60;;;;;;;22.11;45.70;96551.81;4926105;29;20044;-69
2021/05/05 10:10:26;;;;;;;5.22;3.75;;;;;;;22.33;44.72;96551.84;4927518;29;20031;-69
2021/05/05 10:12:54;;;;;;;7.10;3.15;;;;;;;22.19;45.68;96541.06;4927022;29;20039;-70
2021/05/05 10:15:19;;;;;;;6.75;3.47;;;;;;;21.56;43.79;96408.75;4925480;29;20039;-69
2021/05/05 10:17:48;;;;;;;4.93;3.05;;;;;;;22.66;43.93;96553.03;4927101;29;20046;-69
2021/05/05 10:20:17;;;;;;;4.95;3.00;;;;;;;21.86;43.42;96410.13;4927080;29;20024;-69
2021/05/05 10:22:43;;;;;;;7.10;3.35;;;;;;;22.81;43.62;96548.38;4927478;29;20048;-69
2021/05/05 10:25:12;;;;;;;4.72;3.08;;;;;;;22.78;43.72;96531.59;4925508;29;20038;-69
2021/05/05 10:27:38;;;;;;;3.92;3.10;;;;;;;21.86;45.04;96534.97;4927273;29;20043;-69
2021/05/05 10:30:04;;;;;;;8.02;3.35;;;;;;;21.54;44.56;96407.66;4925572;29;20562;-70
2021/05/05 10:32:32;;;;;;;5.40;3.30;;;;;;;22.52;44.64;96530.97;4927276;29;20051;-69
2021/05/05 10:34:58;;;;;;;5.47;3.03;;;;;;;21.93;44.73;96449.34;4927410;29;20035;-69
2021/05/05 10:38:00;;;;;;;5.35;2.97;;;;;;;21.49;46.73;96532.25;4926889;29;20040;-70
2021/05/05 10:40:32;;;;;;;4.90;3.10;;;;;;;20.89;47.45;96484.31;4923801;29;20040;-71
2021/05/05 10:43:03;;;;;;;6.10;3.28;;;;;;;21.84;47.12;96523.38;4926833;29;20119;-70
2021/05/05 10:45:37;;;;;;;6.90;3.90;;;;;;;22.31;45.47;96526.91;4926075;29;20027;-69
2021/05/05 10:48:16;;;;;;;5.80;3.42;;;;;;;21.99;46.01;96527.25;4927444;29;20043;-69
2021/05/05 10:50:49;;;;;;;6.97;3.97;;;;;;;22.48;45.73;96514.13;4927032;29;20032;-70
2021/05/05 10:53:15;;;;;;;7.03;3.50;;;;;;;22.25;45.91;96534.38;4927189;29;20423;-64
2021/05/05 10:55:47;;;;;;;4.53;3.20;;;;;;;20.68;44.04;96208.34;4913498;29;20574;-70
2021/05/05 10:58:16;;;;;;;8.75;3.63;;;;;;;22.48;44.90;96440.75;4929253;29;20039;-70
2021/05/05 11:00:43;;;;;;;4.68;3.10;;;;;;;23.58;43.40;96507.72;4940316;28;20039;-72
2021/05/05 11:03:10;;;;;;;7.72;3.70;;;;;;;23.78;41.76;96457.16;4930709;29;20052;-69
2021/05/05 11:05:38;;;;;;;5.78;3.20;;;;;;;23.60;41.16;96502.41;4926556;29;20043;-68
2021/05/05 11:08:09;;;;;;;3.75;2.90;;;;;;;23.24;42.31;96485.31;4926080;29;20123;-69
2021/05/05 11:10:38;;;;;;;5.80;2.50;;;;;;;23.15;41.93;96488.13;4931143;29;20082;-66
2021/05/05 11:13:18;;;;;;;5.32;3.40;;;;;;;23.24;42.48;96485.31;4931749;28;20036;-67
2021/05/05 11:15:44;;;;;;;5.53;3.08;;;;;;;22.98;43.25;96473.47;4938616;28;20487;-77
2021/05/05 11:18:28;;;;;;;5.55;2.80;;;;;;;23.66;42.64;96475.06;4923545;29;20044;-72
2021/05/05 11:20:58;;;;;;;8.80;3.38;;;;;;;24.20;41.53;96466.56;4945514;28;20090;-69
2021/05/05 11:23:33;;;;;;;5.82;3.50;;;;;;;24.04;40.96;96463.31;4929809;28;20280;-65
2021/05/05 11:26:16;;;;;;;5.53;3.25;;;;;;;22.99;43.06;96471.41;4926441;29;20032;-70
2021/05/05 11:28:54;;;;;;;;;;;;;;;23.98;41.50;96474.44;4926511;29;20063;-63
2021/05/05 11:31:19;;;;;;;5.43;4.35;;;;;;;24.26;40.90;96425.06;4926997;29;19929;-67
2021/05/05 11:33:59;;;;;;;6.72;4.90;;;;;;;24.11;41.71;96455.28;4932810;28;20031;-65
2021/05/05 11:36:25;;;;;;;5.35;3.88;;;;;;;21.65;40.50;96017.00;4924390;29;20114;-67
2021/05/05 11:38:50;;;;;;;6.30;4.40;;;;;;;24.80;39.72;96452.47;4925230;28;20526;-64